createdAt,value
2022-08-05T00:02:21.935Z,25.62
2022-08-05T00:04:55.551Z,25.36
2022-08-05T00:08:00.620Z,24.40
2022-08-05T00:10:09.929Z,24.10
2022-08-05T00:12:55.833Z,23.71
2022-08-05T00:15:55.799Z,23.48
2022-08-05T00:18:09.621Z,23.65
2022-08-05T00:20:48.866Z,24.04
2022-08-05T00:23:15.581Z,24.08
2022-08-05T00:25:46.082Z,23.88
2022-08-05T00:28:13.535Z,23.83
2022-08-05T00:30:41.235Z,23.79
2022-08-05T00:34:42.490Z,23.31
2022-08-05T00:36:16.083Z,23.47
2022-08-05T00:38:44.297Z,23.96
2022-08-05T00:41:11.684Z,24.17
2022-08-05T00:43:46.688Z,24.29
2022-08-05T00:46:14.177Z,24.78
2022-08-05T00:48:51.306Z,25.06
2022-08-05T00:51:51.080Z,25.47
2022-08-05T00:54:05.757Z,25.52
2022-08-05T00:56:32.359Z,25.88
2022-08-05T00:59:00.359Z,25.45
2022-08-05T01:01:48.739Z,25.48
2022-08-05T01:04:15.769Z,25.53
2022-08-05T01:06:46.695Z,25.74
2022-08-05T01:09:15.217Z,25.92
2022-08-05T01:11:46.201Z,25.96
2022-08-05T01:14:16.615Z,26.06
2022-08-05T01:16:53.610Z,25.93
2022-08-05T01:19:36.534Z,25.95
2022-08-05T01:22:31.979Z,25.99
2022-08-05T01:25:40.375Z,26.14
2022-08-05T01:28:17.805Z,25.86
2022-08-05T01:30:59.558Z,25.88
2022-08-05T01:33:35.528Z,25.43
2022-08-05T01:36:07.184Z,25.22
2022-08-05T01:38:40.185Z,25.25
2022-08-05T01:41:07.988Z,25.49
2022-08-05T01:43:35.832Z,25.67
2022-08-05T01:46:07.283Z,25.76
2022-08-05T01:48:44.506Z,25.56
2022-08-05T01:51:12.148Z,24.73
2022-08-05T01:53:57.663Z,24.97
2022-08-05T01:58:13.192Z,25.18
2022-08-05T01:59:18.387Z,25.40
2022-08-05T02:01:47.232Z,25.27
2022-08-05T02:04:16.783Z,25.35
2022-08-05T02:06:45.133Z,25.31
2022-08-05T02:09:11.945Z,25.20
2022-08-05T02:12:03.678Z,25.42
2022-08-05T02:14:37.208Z,25.34
2022-08-05T02:17:17.057Z,25.40
2022-08-05T02:20:06.478Z,25.66
2022-08-05T02:22:42.456Z,25.22
2022-08-05T02:25:15.743Z,25.06
2022-08-05T02:27:58.345Z,25.57
2022-08-05T02:30:31.414Z,25.42
2022-08-05T02:33:02.759Z,25.00
2022-08-05T02:35:33.084Z,25.04
2022-08-05T02:38:04.543Z,25.07
2022-08-05T02:40:32.079Z,25.31
2022-08-05T02:42:59.509Z,25.18
2022-08-05T02:45:28.426Z,24.74
2022-08-05T02:48:06.555Z,25.05
2022-08-05T02:50:37.062Z,24.74
2022-08-05T02:53:04.670Z,24.56
2022-08-05T02:55:52.032Z,24.04
2022-08-05T02:58:22.244Z,24.32
2022-08-05T03:00:49.656Z,23.93
2022-08-05T03:03:20.448Z,24.33
2022-08-05T03:06:53.763Z,24.67
2022-08-05T03:08:39.090Z,24.52
2022-08-05T03:11:54.843Z,25.10
2022-08-05T03:14:13.521Z,24.82
2022-08-05T03:16:40.709Z,25.00
2022-08-05T03:19:17.448Z,24.80
2022-08-05T03:21:54.520Z,24.70
2022-08-05T03:24:29.379Z,24.43
2022-08-05T03:26:57.688Z,23.90
2022-08-05T03:29:24.416Z,23.65
2022-08-05T03:32:11.435Z,23.54
2022-08-05T03:34:38.630Z,23.62
2022-08-05T03:37:06.443Z,23.14
2022-08-05T03:39:38.141Z,22.73
2022-08-05T03:42:16.561Z,22.21
2022-08-05T03:44:43.089Z,21.68
2022-08-05T03:47:09.626Z,21.82
2022-08-05T03:49:52.001Z,21.54
2022-08-05T03:52:48.461Z,21.53
2022-08-05T03:56:00.919Z,21.36
2022-08-05T03:58:02.707Z,21.63
2022-08-05T04:00:32.183Z,21.93
2022-08-05T04:02:59.809Z,22.00
2022-08-05T04:05:33.883Z,22.14
2022-08-05T04:08:29.585Z,21.90
2022-08-05T04:10:53.564Z,21.56
2022-08-05T04:13:21.664Z,21.30
2022-08-05T04:16:03.084Z,21.62
2022-08-05T04:18:32.234Z,21.49
2022-08-05T04:21:01.746Z,21.58
2022-08-05T04:24:00.254Z,21.38
2022-08-05T04:26:17.657Z,21.58
2022-08-05T04:28:50.806Z,21.81
2022-08-05T04:31:18.013Z,21.64
2022-08-05T04:34:19.378Z,21.67
2022-08-05T04:36:46.122Z,21.43
2022-08-05T04:39:17.153Z,21.22
2022-08-05T04:41:44.844Z,21.09
2022-08-05T04:44:12.980Z,20.61
2022-08-05T04:46:39.743Z,20.41
2022-08-05T04:49:12.391Z,21.01
2022-08-05T04:51:43.939Z,21.34
2022-08-05T04:54:10.624Z,21.29
2022-08-05T04:56:39.173Z,21.43
2022-08-05T04:59:13.957Z,21.42
2022-08-05T05:02:08.160Z,21.34
2022-08-05T05:04:38.437Z,21.59
2022-08-05T05:07:11.963Z,21.56
2022-08-05T05:09:42.519Z,21.64
2022-08-05T05:12:11.532Z,22.19
2022-08-05T05:14:38.385Z,22.43
2022-08-05T05:17:22.790Z,22.70
2022-08-05T05:19:50.404Z,22.95
2022-08-05T05:22:24.101Z,23.03
2022-08-05T05:24:57.899Z,23.27
2022-08-05T05:27:41.236Z,23.53
2022-08-05T05:30:15.760Z,23.20
2022-08-05T05:33:00.826Z,23.58
2022-08-05T05:35:37.883Z,23.78
2022-08-05T05:38:06.427Z,23.77
2022-08-05T05:40:36.254Z,23.94
2022-08-05T05:43:03.168Z,23.88
2022-08-05T05:45:29.960Z,23.70
2022-08-05T05:48:05.415Z,23.81
2022-08-05T05:50:44.008Z,23.76
2022-08-05T05:53:21.600Z,23.70
2022-08-05T05:55:52.012Z,23.77
2022-08-05T05:58:31.881Z,23.57
2022-08-05T06:01:02.386Z,23.77
2022-08-05T06:03:53.775Z,23.93
2022-08-05T06:06:27.918Z,24.25
2022-08-05T06:08:57.425Z,24.24
2022-08-05T06:11:24.190Z,24.39
2022-08-05T06:13:54.249Z,24.29
2022-08-05T06:16:31.665Z,24.40
2022-08-05T06:19:01.187Z,24.55
2022-08-05T06:21:36.992Z,24.20
2022-08-05T06:24:12.090Z,24.48
2022-08-05T06:26:51.589Z,24.54
2022-08-05T06:29:23.847Z,24.42
2022-08-05T06:32:21.065Z,24.46
2022-08-05T06:34:53.505Z,24.63
2022-08-05T06:37:56.526Z,24.59
2022-08-05T06:40:07.783Z,24.68
2022-08-05T06:42:34.539Z,24.73
2022-08-05T06:45:05.517Z,24.71
2022-08-05T06:48:36.497Z,24.75
2022-08-05T06:50:22.458Z,25.10
2022-08-05T06:53:03.591Z,25.08
2022-08-05T06:55:36.726Z,25.18
2022-08-05T06:58:20.356Z,25.69
2022-08-05T07:00:50.739Z,25.72
2022-08-05T07:03:17.430Z,25.92
2022-08-05T07:05:46.382Z,25.93
2022-08-05T07:08:13.449Z,25.56
2022-08-05T07:10:52.217Z,25.22
2022-08-05T07:13:57.212Z,25.11
2022-08-05T07:17:56.590Z,25.44
2022-08-05T07:22:17.325Z,24.45
2022-08-05T07:24:52.696Z,24.75
2022-08-05T07:27:20.261Z,24.84
2022-08-05T07:30:25.575Z,24.02
2022-08-05T07:32:38.692Z,23.74
2022-08-05T07:35:56.037Z,23.61
2022-08-05T07:37:56.489Z,23.60
2022-08-05T07:40:31.947Z,23.32
2022-08-05T07:42:59.793Z,23.37
2022-08-05T07:45:56.460Z,22.73
2022-08-05T07:49:02.709Z,23.10
2022-08-05T07:51:23.014Z,22.73
2022-08-05T07:53:52.404Z,22.08
2022-08-05T07:57:00.587Z,22.85
2022-08-05T07:59:08.532Z,22.85
2022-08-05T08:01:35.428Z,22.22
2022-08-05T08:04:08.321Z,22.51
2022-08-05T08:06:34.866Z,22.99
2022-08-05T08:09:01.874Z,22.83
2022-08-05T08:11:47.617Z,23.25
2022-08-05T08:14:18.262Z,23.08
2022-08-05T08:16:50.986Z,23.05
2022-08-05T08:20:10.699Z,23.48
2022-08-05T08:22:09.082Z,22.71
2022-08-05T08:24:51.911Z,23.48
2022-08-05T08:27:18.723Z,23.84
2022-08-05T08:30:05.305Z,23.12
2022-08-05T08:32:34.475Z,23.45
2022-08-05T08:35:07.648Z,23.39
2022-08-05T08:37:40.309Z,23.45
2022-08-05T08:40:12.097Z,23.02
2022-08-05T08:42:50.983Z,22.95
2022-08-05T08:45:26.540Z,23.03
2022-08-05T08:48:10.547Z,23.22
2022-08-05T08:51:22.090Z,23.07
2022-08-05T08:53:36.054Z,23.56
2022-08-05T08:56:06.037Z,23.30
2022-08-05T08:58:43.081Z,23.38
2022-08-05T09:01:17.200Z,23.49
2022-08-05T09:03:54.540Z,23.22
2022-08-05T09:06:24.169Z,23.41
2022-08-05T09:08:55.491Z,22.60
2022-08-05T09:11:53.444Z,22.90
2022-08-05T09:14:54.155Z,22.08
2022-08-05T09:16:55.487Z,22.78
2022-08-05T09:19:28.058Z,22.85
2022-08-05T09:22:23.520Z,23.08
2022-08-05T09:25:01.119Z,23.09
2022-08-05T09:28:04.670Z,22.51
2022-08-05T09:30:23.542Z,22.83
2022-08-05T09:32:51.403Z,22.87
2022-08-05T09:35:27.231Z,22.94
2022-08-05T09:38:16.907Z,23.03
2022-08-05T09:40:51.949Z,22.80
2022-08-05T09:43:41.915Z,22.73
2022-08-05T09:46:28.036Z,23.44
2022-08-05T09:49:08.105Z,23.71
2022-08-05T09:51:43.414Z,23.74
2022-08-05T09:54:11.419Z,23.44
2022-08-05T09:56:39.005Z,23.84
2022-08-05T09:59:17.208Z,24.66
2022-08-05T10:01:46.504Z,24.41
2022-08-05T10:04:16.222Z,24.91
2022-08-05T10:06:59.518Z,24.92
2022-08-05T10:09:29.872Z,25.12
2022-08-05T10:12:18.825Z,25.18
2022-08-05T10:15:13.862Z,24.72
2022-08-05T10:17:54.462Z,24.53
2022-08-05T10:20:23.800Z,24.36
2022-08-05T10:22:51.989Z,24.73
2022-08-05T10:25:19.710Z,25.41
2022-08-05T10:28:13.896Z,24.51
2022-08-05T10:31:20.588Z,24.66
2022-08-05T10:33:25.620Z,24.70
2022-08-05T10:35:59.239Z,25.16
2022-08-05T10:38:28.686Z,25.04
2022-08-05T10:41:45.191Z,25.28
2022-08-05T10:44:17.661Z,25.38
2022-08-05T10:46:50.565Z,25.08
2022-08-05T10:49:18.414Z,25.49
2022-08-05T10:52:00.244Z,25.40
2022-08-05T10:54:56.112Z,25.31
2022-08-05T10:57:29.453Z,25.46
2022-08-05T11:00:17.901Z,24.73
2022-08-05T11:03:25.730Z,24.46
2022-08-05T11:06:14.486Z,23.70
2022-08-05T11:09:10.297Z,23.30
2022-08-05T11:11:44.443Z,23.93
2022-08-05T11:15:01.569Z,24.34
2022-08-05T11:17:57.210Z,24.11
2022-08-05T11:20:32.927Z,24.71
2022-08-05T11:23:05.906Z,25.05
2022-08-05T11:26:05.176Z,24.84
2022-08-05T11:28:32.882Z,25.31
2022-08-05T11:31:06.333Z,25.53
2022-08-05T11:33:46.193Z,25.84
2022-08-05T11:36:33.987Z,26.01
2022-08-05T11:39:09.115Z,25.79
2022-08-05T11:42:02.031Z,26.16
2022-08-05T11:44:52.740Z,25.60
2022-08-05T11:47:15.265Z,25.72
2022-08-05T11:49:51.231Z,26.18
2022-08-05T11:52:29.511Z,25.88
2022-08-05T11:54:58.457Z,25.60
2022-08-05T11:57:30.651Z,25.86
2022-08-05T12:00:25.610Z,25.89
2022-08-05T12:02:56.613Z,26.66
2022-08-05T12:05:36.065Z,27.86
2022-08-05T12:08:09.926Z,28.96
2022-08-05T12:10:45.446Z,33.24
2022-08-05T12:13:27.747Z,35.44
2022-08-05T12:16:14.713Z,36.39
2022-08-05T12:18:49.049Z,35.78
2022-08-05T12:21:31.815Z,35.27
2022-08-05T12:24:07.576Z,36.06
2022-08-05T12:26:50.169Z,35.13
2022-08-05T12:29:22.853Z,33.20
2022-08-05T12:32:01.709Z,32.89
2022-08-05T12:34:32.180Z,31.74
2022-08-05T12:37:01.430Z,31.70
2022-08-05T12:39:37.510Z,30.15
2022-08-05T12:42:14.919Z,30.21
2022-08-05T12:44:42.997Z,29.26
2022-08-05T12:47:12.335Z,29.75
2022-08-05T12:50:03.753Z,30.89
2022-08-05T12:52:41.874Z,31.55
2022-08-05T12:55:22.224Z,30.34
2022-08-05T12:58:38.415Z,29.59
2022-08-05T13:02:00.105Z,30.16
2022-08-05T13:03:33.154Z,30.00
2022-08-05T13:06:01.593Z,29.91
2022-08-05T13:08:32.201Z,29.89
2022-08-05T13:11:02.338Z,28.76
2022-08-05T13:14:07.348Z,28.32
2022-08-05T13:16:17.331Z,28.66
2022-08-05T13:18:55.278Z,28.18
2022-08-05T13:21:27.810Z,27.68
2022-08-05T13:23:55.549Z,28.76
2022-08-05T13:26:29.955Z,29.63
2022-08-05T13:28:57.132Z,29.12
2022-08-05T13:32:04.847Z,27.89
2022-08-05T13:34:31.834Z,27.48
2022-08-05T13:37:00.197Z,27.58
2022-08-05T13:40:15.012Z,26.41
2022-08-05T13:42:14.784Z,26.50
2022-08-05T13:44:46.051Z,26.68
2022-08-05T13:47:34.864Z,26.74
2022-08-05T13:50:04.507Z,28.14
2022-08-05T13:52:35.253Z,28.68
2022-08-05T13:55:03.003Z,29.21
2022-08-05T13:57:48.558Z,29.65
2022-08-05T14:00:27.135Z,29.30
2022-08-05T14:02:58.490Z,29.35
2022-08-05T14:05:48.200Z,29.57
2022-08-05T14:08:21.188Z,29.29
2022-08-05T14:10:59.817Z,28.24
2022-08-05T14:13:30.009Z,29.27
2022-08-05T14:16:07.404Z,29.35
2022-08-05T14:18:37.938Z,29.72
2022-08-05T14:22:07.239Z,29.39
2022-08-05T14:23:51.549Z,29.23
2022-08-05T14:26:36.892Z,28.65
2022-08-05T14:29:05.280Z,27.88
2022-08-05T14:32:02.702Z,27.26
2022-08-05T14:34:30.436Z,27.53
2022-08-05T14:37:02.182Z,26.85
2022-08-05T14:39:28.940Z,26.86
2022-08-05T14:42:19.640Z,26.89
2022-08-05T14:44:45.883Z,27.20
2022-08-05T14:47:12.476Z,26.72
2022-08-05T14:49:58.877Z,26.50
2022-08-05T14:52:50.509Z,27.32
2022-08-05T14:55:15.409Z,27.12
2022-08-05T14:57:56.115Z,27.25
2022-08-05T15:00:28.050Z,26.99
2022-08-05T15:02:56.507Z,26.32
2022-08-05T15:05:29.861Z,26.51
2022-08-05T15:08:06.307Z,27.20
2022-08-05T15:10:39.002Z,27.77
2022-08-05T15:13:06.222Z,27.79
2022-08-05T15:15:54.198Z,27.45
2022-08-05T15:18:23.341Z,27.73
2022-08-05T15:20:50.006Z,27.62
2022-08-05T15:23:17.810Z,27.73
2022-08-05T15:25:52.321Z,27.56
2022-08-05T15:28:22.257Z,28.01
2022-08-05T15:30:54.071Z,27.95
2022-08-05T15:33:56.774Z,28.06
2022-08-05T15:36:16.824Z,27.89
2022-08-05T15:38:50.599Z,28.18
2022-08-05T15:41:57.398Z,27.92
2022-08-05T15:44:23.631Z,28.17
2022-08-05T15:46:50.684Z,28.20
2022-08-05T15:49:27.320Z,28.88
2022-08-05T15:52:13.108Z,28.15
2022-08-05T15:54:43.048Z,28.62
2022-08-05T15:57:09.831Z,29.07
2022-08-05T15:59:38.079Z,28.78
2022-08-05T16:02:09.302Z,28.61
2022-08-05T16:04:41.005Z,29.08
2022-08-05T16:07:10.709Z,29.10
2022-08-05T16:09:37.699Z,27.85
2022-08-05T16:12:08.857Z,27.91
2022-08-05T16:14:35.381Z,27.47
2022-08-05T16:17:02.041Z,28.45
2022-08-05T16:20:03.610Z,27.92
2022-08-05T16:22:16.243Z,27.31
2022-08-05T16:24:51.353Z,27.66
2022-08-05T16:27:18.831Z,26.45
2022-08-05T16:29:51.116Z,26.61
2022-08-05T16:32:21.732Z,26.53
2022-08-05T16:34:55.129Z,25.40
2022-08-05T16:38:02.871Z,25.58
2022-08-05T16:40:13.423Z,25.25
2022-08-05T16:42:51.917Z,25.04
2022-08-05T16:46:05.232Z,25.36
2022-08-05T16:48:05.154Z,25.57
2022-08-05T16:50:31.714Z,24.81
2022-08-05T16:53:12.065Z,25.13
2022-08-05T16:55:47.518Z,25.41
2022-08-05T16:58:14.515Z,25.59
2022-08-05T17:00:41.067Z,25.16
2022-08-05T17:03:09.208Z,25.51
2022-08-05T17:05:51.845Z,25.36
2022-08-05T17:08:35.920Z,25.48
2022-08-05T17:11:08.834Z,25.58
2022-08-05T17:13:42.142Z,25.90
2022-08-05T17:16:28.143Z,25.80
2022-08-05T17:18:55.542Z,25.83
2022-08-05T17:21:23.602Z,25.57
2022-08-05T17:24:04.569Z,25.19
2022-08-05T17:26:38.439Z,24.97
2022-08-05T17:29:09.822Z,25.23
2022-08-05T17:31:41.581Z,24.86
2022-08-05T17:34:29.812Z,24.42
2022-08-05T17:36:59.479Z,24.73
2022-08-05T17:39:34.039Z,24.32
2022-08-05T17:42:17.325Z,24.27
2022-08-05T17:44:50.237Z,24.42
2022-08-05T17:47:22.412Z,24.53
2022-08-05T17:50:03.523Z,24.50
2022-08-05T17:52:32.171Z,24.16
2022-08-05T17:54:59.070Z,23.89
2022-08-05T17:57:25.629Z,24.18
2022-08-05T18:00:04.782Z,23.90
2022-08-05T18:02:35.101Z,24.17
2022-08-05T18:05:06.282Z,23.60
2022-08-05T18:07:42.170Z,23.77
2022-08-05T18:10:11.466Z,23.85
2022-08-05T18:12:41.180Z,24.20
2022-08-05T18:15:08.781Z,23.96
2022-08-05T18:18:00.596Z,24.06
2022-08-05T18:20:29.669Z,23.80
2022-08-05T18:23:00.709Z,23.49
2022-08-05T18:25:35.816Z,23.36
2022-08-05T18:28:05.096Z,23.34
2022-08-05T18:30:33.178Z,23.44
2022-08-05T18:33:00.865Z,23.48
2022-08-05T18:36:00.043Z,23.43
2022-08-05T18:38:18.925Z,23.48
2022-08-05T18:41:58.475Z,23.38
2022-08-05T18:43:38.061Z,23.31
2022-08-05T18:46:09.869Z,22.91
2022-08-05T18:48:41.414Z,23.13
2022-08-05T18:52:05.610Z,22.79
2022-08-05T18:54:14.403Z,23.03
2022-08-05T18:56:50.777Z,22.99
2022-08-05T18:59:43.267Z,23.28
2022-08-05T19:02:11.500Z,23.30
2022-08-05T19:05:01.108Z,23.28
2022-08-05T19:07:30.224Z,23.23
2022-08-05T19:10:12.329Z,23.16
2022-08-05T19:12:38.950Z,23.22
2022-08-05T19:15:06.320Z,23.14
2022-08-05T19:18:08.198Z,23.00
2022-08-05T19:20:36.714Z,23.24
2022-08-05T19:23:03.399Z,23.13
2022-08-05T19:25:41.893Z,23.23
2022-08-05T19:28:10.291Z,22.99
2022-08-05T19:30:36.991Z,23.04
2022-08-05T19:33:04.625Z,22.86
2022-08-05T19:35:56.444Z,22.77
2022-08-05T19:38:24.447Z,22.88
2022-08-05T19:40:53.607Z,22.58
2022-08-05T19:44:04.956Z,22.68
2022-08-05T19:46:06.890Z,22.72
2022-08-05T19:48:53.596Z,22.54
2022-08-05T19:52:04.277Z,22.42
2022-08-05T19:54:25.428Z,22.39
2022-08-05T19:56:55.541Z,22.40
2022-08-05T20:00:02.128Z,22.84
2022-08-05T20:02:08.691Z,22.34
2022-08-05T20:04:38.052Z,22.52
2022-08-05T20:07:13.090Z,22.29
2022-08-05T20:09:54.935Z,22.16
2022-08-05T20:12:24.942Z,21.98
2022-08-05T20:14:53.009Z,21.98
2022-08-05T20:17:23.560Z,22.21
2022-08-05T20:19:52.741Z,22.00
2022-08-05T20:22:26.989Z,22.34
2022-08-05T20:24:55.306Z,22.38
2022-08-05T20:27:26.951Z,22.33
2022-08-05T20:29:58.427Z,22.36
2022-08-05T20:32:26.948Z,22.27
2022-08-05T20:34:54.111Z,22.14
2022-08-05T20:38:06.114Z,22.12
2022-08-05T20:40:08.364Z,21.83
2022-08-05T20:42:35.503Z,22.21
2022-08-05T20:45:02.727Z,21.99
2022-08-05T20:47:31.647Z,21.50
2022-08-05T20:49:59.681Z,22.01
2022-08-05T20:52:28.927Z,21.76
2022-08-05T20:55:55.623Z,21.99
2022-08-05T20:57:44.343Z,22.00
2022-08-05T21:00:20.863Z,21.78
2022-08-05T21:03:06.948Z,21.80
2022-08-05T21:05:41.949Z,21.93
2022-08-05T21:08:21.064Z,21.72
2022-08-05T21:10:53.582Z,21.44
2022-08-05T21:13:36.796Z,21.46
2022-08-05T21:16:07.128Z,21.29
2022-08-05T21:18:34.207Z,21.01
2022-08-05T21:21:02.491Z,21.33
2022-08-05T21:23:29.065Z,21.20
2022-08-05T21:26:04.134Z,21.44
2022-08-05T21:28:34.831Z,21.14
2022-08-05T21:31:03.818Z,21.11
2022-08-05T21:33:39.763Z,21.17
2022-08-05T21:36:06.853Z,21.25
2022-08-05T21:38:38.715Z,21.38
2022-08-05T21:41:07.746Z,21.41
2022-08-05T21:43:41.881Z,21.26
2022-08-05T21:46:08.642Z,20.72
2022-08-05T21:48:38.715Z,21.21
2022-08-05T21:52:16.225Z,21.33
2022-08-05T21:53:59.472Z,21.19
2022-08-05T21:56:30.752Z,21.37
2022-08-05T21:58:58.052Z,21.22
2022-08-05T22:01:25.749Z,21.12
2022-08-05T22:03:53.598Z,21.42
2022-08-05T22:06:22.783Z,20.93
2022-08-05T22:08:52.089Z,21.08
2022-08-05T22:11:34.932Z,20.48
2022-08-05T22:14:19.921Z,20.19
2022-08-05T22:16:51.926Z,20.29
2022-08-05T22:20:00.302Z,20.18
2022-08-05T22:22:07.311Z,20.33
2022-08-05T22:24:55.744Z,20.60
2022-08-05T22:28:08.326Z,20.62
2022-08-05T22:30:34.919Z,20.68
2022-08-05T22:33:02.027Z,20.77
2022-08-05T22:35:47.851Z,20.60
2022-08-05T22:38:15.274Z,20.74
2022-08-05T22:40:49.782Z,20.87
2022-08-05T22:43:37.155Z,20.77
2022-08-05T22:46:13.206Z,20.50
2022-08-05T22:48:47.547Z,20.62
2022-08-05T22:51:16.099Z,20.23
2022-08-05T22:53:50.972Z,20.46
2022-08-05T22:56:30.103Z,19.97
2022-08-05T22:58:59.878Z,20.13
2022-08-05T23:02:04.578Z,20.14
2022-08-05T23:04:16.596Z,20.39
2022-08-05T23:06:43.144Z,19.84
2022-08-05T23:09:14.619Z,19.81
2022-08-05T23:11:54.785Z,19.34
2022-08-05T23:14:22.683Z,19.52
2022-08-05T23:17:16.839Z,19.68
2022-08-05T23:19:58.466Z,19.38
2022-08-05T23:22:27.374Z,19.77
2022-08-05T23:24:54.893Z,19.64
2022-08-05T23:27:22.756Z,20.00
2022-08-05T23:29:50.755Z,19.89
2022-08-05T23:32:17.460Z,19.97
2022-08-05T23:34:49.797Z,19.62
2022-08-05T23:37:18.016Z,19.82
2022-08-05T23:39:54.271Z,19.93
2022-08-05T23:42:23.493Z,19.83
2022-08-05T23:44:56.321Z,19.46
2022-08-05T23:47:24.997Z,18.96
2022-08-05T23:49:52.110Z,19.13
2022-08-05T23:52:32.600Z,18.92
2022-08-05T23:55:09.055Z,19.15
2022-08-05T23:57:36.357Z,19.29
